createdAt,value
2023-10-20T00:00:58.901Z,13.20
2023-10-20T00:04:00.437Z,13.22
2023-10-20T00:07:03.738Z,13.16
2023-10-20T00:10:06.384Z,13.15
2023-10-20T00:13:07.820Z,13.14
2023-10-20T00:16:09.279Z,13.04
2023-10-20T00:19:10.836Z,13.15
2023-10-20T00:22:12.318Z,13.17
2023-10-20T00:25:13.695Z,13.11
2023-10-20T00:28:15.142Z,13.19
2023-10-20T00:31:18.214Z,13.27
2023-10-20T00:34:19.748Z,13.19
2023-10-20T00:37:21.543Z,13.30
2023-10-20T00:40:22.955Z,13.14
2023-10-20T00:43:34.382Z,12.84
2023-10-20T00:46:35.784Z,12.92
2023-10-20T00:49:38.251Z,12.82
2023-10-20T00:52:49.648Z,12.82
2023-10-20T00:55:51.392Z,12.88
2023-10-20T00:58:52.779Z,12.84
2023-10-20T01:01:55.421Z,12.73
2023-10-20T01:04:56.911Z,12.87
2023-10-20T01:07:58.448Z,12.78
2023-10-20T01:10:59.976Z,12.79
2023-10-20T01:14:02.159Z,13.08
2023-10-20T01:17:04.409Z,13.11
2023-10-20T01:20:07.345Z,13.16
2023-10-20T01:23:09.044Z,13.28
2023-10-20T01:26:10.481Z,13.28
2023-10-20T01:29:13.473Z,13.25
2023-10-20T01:32:15.076Z,13.22
2023-10-20T01:35:16.552Z,13.23
2023-10-20T01:38:18.530Z,13.21
2023-10-20T01:41:20.786Z,13.14
2023-10-20T01:44:22.485Z,13.11
2023-10-20T01:47:24.103Z,13.12
2023-10-20T01:50:25.825Z,13.09
2023-10-20T01:53:27.401Z,13.09
2023-10-20T01:56:28.892Z,13.06
2023-10-20T01:59:30.306Z,13.06
2023-10-20T02:02:31.854Z,13.02
2023-10-20T02:05:33.378Z,13.07
2023-10-20T02:08:35.931Z,13.07
2023-10-20T02:11:37.723Z,12.97
2023-10-20T02:14:39.216Z,13.07
2023-10-20T02:17:40.783Z,13.13
2023-10-20T02:20:42.350Z,13.15
2023-10-20T02:23:43.792Z,13.06
2023-10-20T02:26:47.012Z,13.07
2023-10-20T02:29:48.451Z,12.99
2023-10-20T02:32:49.953Z,12.94
2023-10-20T02:35:51.460Z,12.93
2023-10-20T02:38:53.347Z,13.06
2023-10-20T02:41:55.227Z,13.02
2023-10-20T02:44:56.619Z,13.05
2023-10-20T02:47:58.836Z,13.00
2023-10-20T02:51:10.296Z,12.93
2023-10-20T02:54:11.713Z,13.08
2023-10-20T02:57:13.107Z,13.09
2023-10-20T03:00:19.383Z,13.07
2023-10-20T03:03:20.976Z,13.08
2023-10-20T03:06:23.749Z,13.01
2023-10-20T03:09:25.354Z,13.13
2023-10-20T03:12:26.804Z,13.11
2023-10-20T03:15:28.227Z,13.13
2023-10-20T03:18:29.766Z,13.17
2023-10-20T03:21:31.676Z,13.09
2023-10-20T03:24:34.275Z,13.10
2023-10-20T03:27:36.802Z,13.04
2023-10-20T03:30:39.627Z,12.98
2023-10-20T03:33:41.797Z,13.04
2023-10-20T03:36:43.200Z,13.13
2023-10-20T03:39:44.802Z,13.14
2023-10-20T03:42:46.705Z,13.14
2023-10-20T03:45:53.179Z,13.16
2023-10-20T03:48:54.774Z,13.15
2023-10-20T03:51:56.218Z,13.19
2023-10-20T03:54:57.647Z,13.17
2023-10-20T03:57:59.053Z,13.17
2023-10-20T04:01:03.071Z,13.18
2023-10-20T04:04:05.476Z,13.24
2023-10-20T04:07:08.227Z,13.16
2023-10-20T04:10:09.667Z,13.11
2023-10-20T04:13:11.349Z,13.16
2023-10-20T04:16:13.896Z,13.04
2023-10-20T04:19:16.023Z,13.02
2023-10-20T04:22:17.500Z,13.03
2023-10-20T04:25:19.371Z,12.95
2023-10-20T04:28:34.022Z,13.02
2023-10-20T04:31:54.164Z,12.99
2023-10-20T04:35:14.088Z,12.84
2023-10-20T04:38:34.090Z,12.91
2023-10-20T04:41:54.268Z,12.83
2023-10-20T04:45:18.248Z,12.97
2023-10-20T04:48:22.720Z,12.98
2023-10-20T04:51:44.109Z,12.98
2023-10-20T04:54:52.522Z,12.98
2023-10-20T04:57:54.558Z,13.10
2023-10-20T05:01:05.176Z,13.29
2023-10-20T05:04:29.475Z,13.30
2023-10-20T05:07:31.280Z,13.50
2023-10-20T05:10:32.858Z,13.63
2023-10-20T05:13:34.756Z,13.69
2023-10-20T05:16:36.218Z,13.96
2023-10-20T05:19:37.716Z,14.03
2023-10-20T05:22:39.140Z,14.32
2023-10-20T05:25:47.841Z,14.20
2023-10-20T05:28:49.224Z,14.25
2023-10-20T05:31:50.667Z,14.27
2023-10-20T05:34:55.660Z,14.59
2023-10-20T05:37:57.029Z,14.55
2023-10-20T05:41:01.040Z,14.62
2023-10-20T05:44:03.096Z,14.44
2023-10-20T05:47:05.359Z,14.44
2023-10-20T05:50:07.508Z,14.58
2023-10-20T05:53:09.126Z,14.81
2023-10-20T05:56:11.617Z,14.94
2023-10-20T05:59:13.222Z,14.89
2023-10-20T06:02:14.690Z,14.86
2023-10-20T06:05:16.243Z,14.82
2023-10-20T06:08:18.170Z,14.93
2023-10-20T06:11:19.701Z,15.20
2023-10-20T06:14:21.547Z,15.41
2023-10-20T06:17:23.012Z,15.64
2023-10-20T06:20:24.446Z,15.80
2023-10-20T06:23:25.942Z,15.84
2023-10-20T06:26:27.425Z,15.88
2023-10-20T06:29:39.237Z,15.80
2023-10-20T06:32:44.128Z,15.96
2023-10-20T06:35:54.426Z,16.06
2023-10-20T06:38:55.891Z,16.16
2023-10-20T06:41:57.901Z,16.30
2023-10-20T06:44:59.312Z,16.17
2023-10-20T06:48:00.839Z,16.19
2023-10-20T06:51:02.340Z,16.23
2023-10-20T06:54:03.739Z,16.17
2023-10-20T06:57:05.365Z,16.23
2023-10-20T07:00:17.277Z,16.12
2023-10-20T07:03:18.785Z,16.05
2023-10-20T07:06:21.843Z,15.81
2023-10-20T07:09:23.639Z,15.82
2023-10-20T07:12:25.078Z,15.61
2023-10-20T07:15:26.723Z,15.46
2023-10-20T07:18:28.131Z,15.26
2023-10-20T07:21:29.551Z,15.26
2023-10-20T07:24:31.334Z,15.16
2023-10-20T07:27:32.813Z,15.09
2023-10-20T07:30:35.543Z,15.10
2023-10-20T07:33:37.188Z,15.01
2023-10-20T07:36:38.778Z,14.93
2023-10-20T07:39:40.246Z,14.84
2023-10-20T07:42:42.190Z,14.83
2023-10-20T07:45:44.325Z,14.85
2023-10-20T07:48:46.376Z,14.69
2023-10-20T07:51:48.496Z,14.79
2023-10-20T07:54:49.964Z,14.89
2023-10-20T07:57:51.822Z,14.86
2023-10-20T08:00:53.328Z,15.03
2023-10-20T08:03:55.105Z,15.13
2023-10-20T08:07:00.737Z,15.34
2023-10-20T08:10:02.331Z,15.30
2023-10-20T08:13:05.761Z,15.50
2023-10-20T08:16:10.289Z,15.49
2023-10-20T08:19:11.825Z,15.62
2023-10-20T08:22:13.250Z,15.57
2023-10-20T08:25:14.953Z,15.45
2023-10-20T08:28:16.348Z,15.49
2023-10-20T08:31:23.240Z,15.46
2023-10-20T08:34:24.849Z,15.49
2023-10-20T08:37:26.229Z,15.42
2023-10-20T08:40:41.689Z,15.10
2023-10-20T08:43:52.531Z,14.99
2023-10-20T08:46:53.963Z,15.00
2023-10-20T08:49:55.361Z,15.05
2023-10-20T08:52:56.811Z,15.21
2023-10-20T08:55:58.212Z,15.27
2023-10-20T08:58:59.600Z,15.11
2023-10-20T09:02:01.062Z,15.13
2023-10-20T09:05:02.498Z,15.12
2023-10-20T09:08:04.750Z,15.14
2023-10-20T09:11:09.148Z,15.25
2023-10-20T09:14:10.731Z,15.22
2023-10-20T09:17:23.484Z,15.45
2023-10-20T09:20:25.473Z,15.47
2023-10-20T09:23:26.909Z,15.35
2023-10-20T09:26:28.690Z,15.56
2023-10-20T09:29:31.183Z,15.52
2023-10-20T09:32:32.667Z,15.57
2023-10-20T09:35:40.409Z,15.51
2023-10-20T09:38:44.772Z,15.50
2023-10-20T09:41:46.617Z,15.62
2023-10-20T09:44:48.938Z,15.48
2023-10-20T09:47:53.361Z,15.62
2023-10-20T09:50:54.963Z,15.77
2023-10-20T09:53:57.278Z,15.87
2023-10-20T09:57:00.632Z,15.96
2023-10-20T10:00:06.170Z,15.91
2023-10-20T10:03:07.820Z,16.12
2023-10-20T10:06:10.187Z,15.81
2023-10-20T10:09:12.087Z,15.87
2023-10-20T10:12:15.837Z,15.89
2023-10-20T10:15:17.354Z,15.99
2023-10-20T10:18:19.894Z,15.69
2023-10-20T10:21:24.998Z,15.85
2023-10-20T10:24:26.695Z,15.98
2023-10-20T10:27:28.899Z,16.00
2023-10-20T10:30:30.460Z,15.82
2023-10-20T10:33:33.487Z,15.87
2023-10-20T10:36:47.450Z,16.00
2023-10-20T10:39:48.862Z,15.70
2023-10-20T10:42:50.823Z,15.76
2023-10-20T10:46:25.230Z,15.64
2023-10-20T10:49:26.689Z,15.55
2023-10-20T10:52:28.070Z,15.45
2023-10-20T10:55:29.750Z,15.57
2023-10-20T10:58:31.809Z,15.79
2023-10-20T11:01:33.221Z,16.12
2023-10-20T11:04:35.193Z,16.05
2023-10-20T11:07:36.978Z,16.27
2023-10-20T11:10:39.126Z,16.48
2023-10-20T11:13:41.501Z,15.90
2023-10-20T11:16:43.150Z,16.43
2023-10-20T11:19:45.218Z,16.46
2023-10-20T11:22:46.838Z,16.55
2023-10-20T11:25:50.111Z,16.70
2023-10-20T11:28:51.946Z,16.71
2023-10-20T11:31:53.353Z,16.66
2023-10-20T11:34:54.757Z,16.69
2023-10-20T11:37:56.483Z,16.87
2023-10-20T11:40:57.894Z,16.52
2023-10-20T11:43:59.548Z,16.21
2023-10-20T11:47:00.989Z,16.41
2023-10-20T11:50:02.512Z,16.42
2023-10-20T11:53:03.934Z,16.27
2023-10-20T11:56:06.060Z,16.24
2023-10-20T11:59:07.923Z,16.10
2023-10-20T12:02:09.303Z,16.09
2023-10-20T12:05:11.412Z,16.10
2023-10-20T12:08:12.878Z,15.77
2023-10-20T12:11:14.333Z,15.89
2023-10-20T12:14:16.233Z,15.94
2023-10-20T12:17:18.013Z,15.87
2023-10-20T12:20:19.450Z,16.05
2023-10-20T12:23:20.928Z,15.87
2023-10-20T12:26:22.539Z,15.85
2023-10-20T12:29:24.118Z,15.46
2023-10-20T12:32:25.645Z,15.47
2023-10-20T12:35:27.105Z,15.16
2023-10-20T12:38:28.597Z,15.33
2023-10-20T12:41:30.116Z,15.23
2023-10-20T12:44:31.650Z,15.25
2023-10-20T12:47:33.841Z,15.23
2023-10-20T12:50:37.114Z,15.18
2023-10-20T12:53:38.589Z,15.26
2023-10-20T12:56:40.076Z,15.27
2023-10-20T12:59:41.594Z,15.25
2023-10-20T13:02:44.761Z,15.11
2023-10-20T13:05:46.339Z,15.24
2023-10-20T13:08:47.830Z,15.25
2023-10-20T13:11:49.288Z,15.24
2023-10-20T13:14:50.732Z,15.43
2023-10-20T13:17:52.301Z,15.34
2023-10-20T13:20:53.764Z,15.34
2023-10-20T13:23:55.213Z,15.11
2023-10-20T13:26:56.729Z,15.22
2023-10-20T13:29:58.250Z,15.10
2023-10-20T13:33:00.966Z,15.01
2023-10-20T13:36:05.616Z,14.95
2023-10-20T13:42:12.937Z,14.96
2023-10-20T13:45:14.378Z,15.02
2023-10-20T13:48:15.872Z,14.96
2023-10-20T13:51:17.448Z,15.04
2023-10-20T13:54:18.835Z,14.96
2023-10-20T13:57:20.221Z,15.02
2023-10-20T14:00:21.683Z,14.93
2023-10-20T14:03:23.189Z,15.06
2023-10-20T14:06:25.158Z,15.14
2023-10-20T14:09:27.257Z,15.15
2023-10-20T14:12:28.662Z,15.17
2023-10-20T14:15:30.128Z,15.15
2023-10-20T14:18:31.622Z,14.98
2023-10-20T14:21:33.167Z,15.01
2023-10-20T14:24:35.153Z,15.02
2023-10-20T14:27:38.073Z,14.91
2023-10-20T14:30:41.048Z,14.95
2023-10-20T14:33:42.524Z,15.03
2023-10-20T14:36:43.936Z,15.06
2023-10-20T14:39:45.342Z,14.90
2023-10-20T14:42:46.779Z,14.93
2023-10-20T14:45:55.385Z,14.98
2023-10-20T14:48:57.613Z,15.05
2023-10-20T14:52:01.340Z,14.95
2023-10-20T14:55:03.934Z,15.00
2023-10-20T14:58:05.374Z,15.05
2023-10-20T15:01:07.248Z,14.93
2023-10-20T15:04:22.202Z,15.08
2023-10-20T15:07:30.001Z,14.94
2023-10-20T15:10:31.483Z,15.09
2023-10-20T15:13:32.899Z,14.84
2023-10-20T15:16:34.333Z,15.04
2023-10-20T15:19:37.065Z,14.98
2023-10-20T15:22:38.702Z,14.92
2023-10-20T15:25:41.564Z,15.04
2023-10-20T15:28:43.085Z,14.95
2023-10-20T15:31:44.659Z,15.01
2023-10-20T15:34:46.215Z,14.99
2023-10-20T15:37:47.702Z,14.94
2023-10-20T15:40:52.412Z,14.89
2023-10-20T15:43:53.880Z,14.86
2023-10-20T15:46:55.289Z,15.01
2023-10-20T15:49:56.696Z,15.03
2023-10-20T15:52:58.120Z,14.94
2023-10-20T15:55:59.518Z,14.93
2023-10-20T15:59:01.006Z,15.10
2023-10-20T16:02:02.402Z,15.00
2023-10-20T16:05:03.935Z,14.94
2023-10-20T16:08:05.449Z,14.97
2023-10-20T16:11:06.892Z,14.77
2023-10-20T16:14:09.737Z,14.85
2023-10-20T16:17:11.256Z,14.92
2023-10-20T16:20:13.795Z,14.95
2023-10-20T16:23:15.235Z,14.88
2023-10-20T16:26:16.656Z,14.95
2023-10-20T16:29:18.110Z,14.96
2023-10-20T16:32:19.489Z,14.81
2023-10-20T16:35:20.948Z,14.73
2023-10-20T16:38:22.534Z,14.57
2023-10-20T16:41:23.924Z,14.53
2023-10-20T16:44:28.245Z,14.24
2023-10-20T16:47:29.800Z,14.34
2023-10-20T16:50:31.413Z,14.26
2023-10-20T16:53:32.973Z,14.20
2023-10-20T16:56:34.446Z,14.01
2023-10-20T16:59:36.847Z,13.78
2023-10-20T17:02:38.721Z,13.82
2023-10-20T17:05:40.245Z,13.80
2023-10-20T17:08:41.661Z,13.65
2023-10-20T17:11:43.171Z,13.60
2023-10-20T17:14:44.680Z,13.45
2023-10-20T17:17:46.504Z,13.28
2023-10-20T17:20:48.237Z,13.40
2023-10-20T17:23:49.850Z,13.34
2023-10-20T17:26:51.491Z,13.20
2023-10-20T17:29:54.710Z,13.11
2023-10-20T17:32:56.223Z,12.88
2023-10-20T17:36:16.934Z,12.82
2023-10-20T17:39:19.531Z,12.78
2023-10-20T17:42:21.060Z,12.71
2023-10-20T17:45:27.406Z,12.74
2023-10-20T17:48:30.107Z,12.59
2023-10-20T17:51:31.814Z,12.46
2023-10-20T17:54:33.289Z,12.29
2023-10-20T17:57:34.670Z,12.29
2023-10-20T18:00:36.103Z,12.14
2023-10-20T18:03:41.431Z,12.08
2023-10-20T18:06:44.320Z,12.00
2023-10-20T18:09:45.865Z,11.95
2023-10-20T18:12:47.974Z,11.91
2023-10-20T18:15:49.368Z,11.85
2023-10-20T18:18:51.106Z,11.76
2023-10-20T18:21:52.504Z,11.77
2023-10-20T18:24:53.901Z,11.82
2023-10-20T18:27:55.328Z,11.85
2023-10-20T18:30:56.967Z,11.93
2023-10-20T18:33:58.876Z,11.99
2023-10-20T18:37:00.349Z,11.84
2023-10-20T18:40:01.794Z,11.84
2023-10-20T18:43:03.382Z,11.72
2023-10-20T18:46:04.972Z,11.75
2023-10-20T18:49:06.424Z,11.83
2023-10-20T18:52:08.505Z,11.90
2023-10-20T18:55:10.358Z,11.90
2023-10-20T18:58:11.726Z,11.96
2023-10-20T19:01:13.278Z,12.00
2023-10-20T19:04:14.728Z,12.05
2023-10-20T19:07:16.229Z,11.98
2023-10-20T19:10:18.130Z,11.88
2023-10-20T19:13:19.546Z,11.94
2023-10-20T19:16:20.984Z,11.99
2023-10-20T19:19:22.433Z,11.88
2023-10-20T19:22:23.836Z,11.82
2023-10-20T19:25:25.270Z,11.81
2023-10-20T19:28:26.855Z,11.61
2023-10-20T19:31:28.870Z,11.90
2023-10-20T19:34:30.391Z,11.81
2023-10-20T19:37:31.858Z,11.82
2023-10-20T19:40:33.219Z,11.93
2023-10-20T19:43:34.674Z,11.96
2023-10-20T19:46:36.174Z,11.94
2023-10-20T19:49:38.451Z,12.10
2023-10-20T19:52:40.276Z,12.16
2023-10-20T19:55:43.898Z,12.17
2023-10-20T19:58:45.342Z,12.11
2023-10-20T20:01:46.870Z,12.09
2023-10-20T20:04:48.341Z,12.20
2023-10-20T20:07:49.712Z,12.35
2023-10-20T20:10:51.086Z,12.32
2023-10-20T20:13:52.476Z,12.56
2023-10-20T20:16:53.889Z,13.20
2023-10-20T20:19:56.593Z,13.39
2023-10-20T20:22:58.009Z,13.52
2023-10-20T20:25:59.443Z,13.24
2023-10-20T20:29:01.628Z,13.32
2023-10-20T20:32:03.103Z,13.15
2023-10-20T20:35:05.330Z,13.13
2023-10-20T20:38:06.727Z,12.90
2023-10-20T20:41:08.139Z,12.82
2023-10-20T20:44:09.512Z,12.79
2023-10-20T20:47:11.576Z,12.47
2023-10-20T20:50:22.368Z,12.66
2023-10-20T20:53:30.735Z,12.66
2023-10-20T20:56:32.286Z,12.77
2023-10-20T20:59:33.875Z,12.75
2023-10-20T21:02:36.174Z,12.81
2023-10-20T21:05:37.756Z,12.68
2023-10-20T21:08:39.295Z,12.78
2023-10-20T21:11:40.753Z,12.98
2023-10-20T21:14:42.225Z,12.81
2023-10-20T21:17:44.538Z,12.85
2023-10-20T21:20:46.054Z,12.73
2023-10-20T21:23:47.502Z,12.75
2023-10-20T21:26:49.636Z,12.92
2023-10-20T21:29:51.071Z,13.08
2023-10-20T21:32:52.548Z,13.40
2023-10-20T21:35:54.538Z,13.48
2023-10-20T21:38:56.348Z,13.22
2023-10-20T21:41:57.933Z,13.13
2023-10-20T21:44:59.412Z,13.18
2023-10-20T21:48:04.045Z,13.13
2023-10-20T21:51:11.145Z,13.08
2023-10-20T21:54:12.789Z,13.19
2023-10-20T21:57:14.316Z,13.76
2023-10-20T22:00:23.790Z,14.49
2023-10-20T22:03:25.854Z,14.63
2023-10-20T22:06:27.437Z,15.05
2023-10-20T22:09:38.045Z,15.22
2023-10-20T22:12:52.498Z,14.92
2023-10-20T22:15:54.449Z,14.69
2023-10-20T22:18:55.901Z,14.51
2023-10-20T22:21:57.506Z,14.58
2023-10-20T22:24:58.963Z,14.29
2023-10-20T22:28:00.505Z,14.10
2023-10-20T22:31:01.916Z,13.89
2023-10-20T22:34:03.295Z,14.00
2023-10-20T22:37:04.688Z,13.81
2023-10-20T22:40:07.098Z,13.79
2023-10-20T22:43:08.505Z,13.68
2023-10-20T22:46:09.984Z,13.68
2023-10-20T22:49:11.424Z,13.73
2023-10-20T22:52:12.817Z,13.75
2023-10-20T22:55:14.254Z,13.74
2023-10-20T22:58:15.633Z,13.68
2023-10-20T23:01:17.034Z,13.95
2023-10-20T23:04:21.415Z,14.03
2023-10-20T23:07:23.925Z,14.03
2023-10-20T23:10:25.328Z,14.02
2023-10-20T23:13:26.757Z,14.14
2023-10-20T23:16:28.280Z,14.27
2023-10-20T23:19:29.745Z,14.26
2023-10-20T23:22:31.811Z,14.42
2023-10-20T23:25:34.541Z,14.31
2023-10-20T23:28:35.934Z,14.41
2023-10-20T23:31:37.391Z,14.43
2023-10-20T23:34:38.852Z,14.40
2023-10-20T23:37:40.206Z,14.42
2023-10-20T23:40:41.607Z,14.47
2023-10-20T23:43:43.268Z,14.52
2023-10-20T23:46:44.705Z,14.59
2023-10-20T23:49:46.165Z,14.53
2023-10-20T23:52:47.799Z,14.51
2023-10-20T23:55:49.279Z,14.61
2023-10-20T23:58:50.690Z,14.58
